Time;durP1;ratioP1;P1;durP2;ratioP2;P2;SDS_P1;SDS_P2;PMS_P1;PMS_P2;Temp;Humidity;BMP_temperature;BMP_pressure;BME280_temperature;BME280_humidity;BME280_pressure;Samples;Min_cycle;Max_cycle;Signal;HPM_P1;HPM_P2
2021/01/09 00:01:09;;;;;;;5.83;4.87;;;3.00;99.90;;;;;;5012002;28;20918;-79
2021/01/09 00:03:35;;;;;;;4.83;4.33;;;3.00;99.90;;;;;;5054603;28;20432;-79
2021/01/09 00:06:00;;;;;;;4.97;4.57;;;3.00;99.90;;;;;;5055270;28;20385;-78
2021/01/09 00:08:26;;;;;;;6.00;4.40;;;3.00;99.90;;;;;;5045596;28;20180;-79
2021/01/09 00:10:55;;;;;;;4.57;4.17;;;3.00;99.90;;;;;;5011375;28;20245;-80
2021/01/09 00:13:22;;;;;;;6.47;3.83;;;3.00;99.90;;;;;;5042731;28;20410;-80
2021/01/09 00:15:47;;;;;;;4.60;3.67;;;3.10;99.90;;;;;;5026025;28;20227;-80
2021/01/09 00:18:14;;;;;;;5.07;4.60;;;3.10;99.90;;;;;;5010621;28;20496;-80
2021/01/09 00:20:39;;;;;;;6.83;5.43;;;3.10;99.90;;;;;;5060812;28;20192;-80
2021/01/09 00:23:07;;;;;;;5.80;4.80;;;3.00;99.90;;;;;;5024242;28;20411;-79
2021/01/09 00:25:33;;;;;;;9.87;5.00;;;3.00;99.90;;;;;;4985296;28;20177;-80
2021/01/09 00:28:00;;;;;;;5.97;4.40;;;3.00;99.90;;;;;;4971685;28;20464;-80
2021/01/09 00:30:26;;;;;;;4.63;4.10;;;3.10;99.90;;;;;;5024641;28;20415;-79
2021/01/09 00:32:56;;;;;;;5.13;4.47;;;3.00;99.90;;;;;;5013383;28;20552;-80
2021/01/09 00:35:22;;;;;;;6.43;4.37;;;3.00;99.90;;;;;;5012727;28;20868;-80
2021/01/09 00:37:48;;;;;;;5.50;4.90;;;3.10;99.90;;;;;;5029114;28;20505;-80
2021/01/09 00:40:14;;;;;;;6.27;4.87;;;3.00;99.90;;;;;;5029033;28;20258;-80
2021/01/09 00:42:47;;;;;;;4.30;3.50;;;3.00;99.90;;;;;;5029412;28;20900;-79
2021/01/09 00:45:13;;;;;;;8.33;4.77;;;3.00;99.90;;;;;;5028967;28;20192;-80
2021/01/09 00:47:40;;;;;;;4.77;4.33;;;3.00;99.90;;;;;;5029726;28;20802;-80
2021/01/09 00:50:21;;;;;;;7.97;4.10;;;3.00;99.90;;;;;;5029625;28;20391;-79
2021/01/09 00:52:49;;;;;;;4.60;3.57;;;3.00;99.90;;;;;;5004629;28;20493;-80
2021/01/09 00:55:15;;;;;;;5.97;4.80;;;2.90;99.90;;;;;;5004381;28;20413;-79
2021/01/09 00:57:46;;;;;;;2.90;2.70;;;2.90;99.90;;;;;;4988946;28;20499;-79
2021/01/09 01:00:14;;;;;;;5.50;4.57;;;2.90;99.90;;;;;;4988404;28;20409;-79
2021/01/09 01:02:40;;;;;;;5.53;4.10;;;2.90;99.90;;;;;;4985683;28;20413;-79
2021/01/09 01:05:06;;;;;;;4.80;4.40;;;2.90;99.90;;;;;;4989223;28;20409;-79
2021/01/09 01:07:36;;;;;;;4.73;4.33;;;3.00;99.90;;;;;;4985582;28;20179;-80
2021/01/09 01:10:05;;;;;;;5.10;4.37;;;3.00;99.90;;;;;;5001636;28;20413;-79
2021/01/09 01:12:33;;;;;;;4.97;4.20;;;3.00;99.90;;;;;;4988412;28;20401;-79
2021/01/09 01:15:01;;;;;;;4.10;3.80;;;2.90;99.90;;;;;;4949434;29;20415;-79
2021/01/09 01:17:32;;;;;;;4.17;3.77;;;2.90;99.90;;;;;;4965936;29;20214;-79
2021/01/09 01:19:58;;;;;;;5.10;3.60;;;2.90;99.90;;;;;;4965839;28;20450;-79
2021/01/09 01:22:26;;;;;;;3.70;3.13;;;2.80;99.90;;;;;;4969350;28;20182;-79
2021/01/09 01:24:52;;;;;;;10.07;4.40;;;2.80;99.90;;;;;;4985220;28;20410;-80
2021/01/09 01:27:18;;;;;;;3.97;3.53;;;2.80;99.90;;;;;;4968344;28;20163;-79
2021/01/09 01:29:44;;;;;;;4.53;3.97;;;2.80;99.90;;;;;;4968734;28;20232;-80
2021/01/09 01:32:13;;;;;;;6.37;4.80;;;2.80;99.90;;;;;;4969126;28;20155;-80
2021/01/09 01:34:38;;;;;;;7.77;4.83;;;2.80;99.90;;;;;;4948418;29;20859;-80
2021/01/09 01:37:08;;;;;;;8.20;4.80;;;2.80;99.90;;;;;;4973928;28;20218;-80
2021/01/09 01:39:35;;;;;;;7.45;5.70;;;2.80;99.90;;;;;;4967359;28;20422;-79
2021/01/09 01:42:01;;;;;;;5.63;5.13;;;2.80;99.90;;;;;;4968626;28;20163;-79
2021/01/09 01:44:30;;;;;;;5.23;4.73;;;2.80;99.90;;;;;;4988665;28;20480;-79
2021/01/09 01:46:58;;;;;;;5.53;4.90;;;2.80;99.90;;;;;;5080580;28;20236;-80
2021/01/09 01:49:24;;;;;;;5.97;4.87;;;2.80;99.90;;;;;;5086212;28;20392;-80
2021/01/09 01:51:54;;;;;;;5.00;4.50;;;2.80;99.90;;;;;;5053964;28;20428;-79
2021/01/09 01:54:21;;;;;;;7.63;5.43;;;2.80;99.90;;;;;;5052172;28;20445;-80
2021/01/09 01:56:52;;;;;;;6.57;5.47;;;2.80;99.90;;;;;;5092212;28;20435;-80
2021/01/09 01:59:18;;;;;;;6.47;5.67;;;2.90;99.90;;;;;;5089453;28;20404;-79
2021/01/09 02:01:47;;;;;;;6.70;5.50;;;2.90;99.90;;;;;;5088667;28;20363;-80
2021/01/09 02:04:12;;;;;;;6.37;4.77;;;2.90;99.90;;;;;;5050833;28;20400;-80
2021/01/09 02:06:40;;;;;;;8.27;4.80;;;3.00;99.90;;;;;;5067508;28;20393;-80
2021/01/09 02:09:16;;;;;;;6.33;4.43;;;3.00;99.90;;;;;;5083758;28;20651;-80
2021/01/09 02:12:05;;;;;;;12.53;7.20;;;3.00;99.90;;;;;;5085346;28;20396;-80
2021/01/09 02:14:42;;;;;;;4.80;4.40;;;3.00;99.90;;;;;;5084639;28;20397;-80
2021/01/09 02:17:09;;;;;;;7.40;4.43;;;2.90;99.90;;;;;;5051187;28;20581;-80
2021/01/09 02:19:39;;;;;;;9.00;4.80;;;2.90;99.90;;;;;;5067428;28;20757;-80
2021/01/09 02:22:09;;;;;;;4.70;4.30;;;2.80;99.90;;;;;;5084551;28;20425;-79
2021/01/09 02:24:35;;;;;;;7.43;4.70;;;2.90;99.90;;;;;;5084041;28;20427;-80
2021/01/09 02:27:04;;;;;;;8.23;5.93;;;2.90;99.90;;;;;;5083892;28;20403;-80
2021/01/09 02:29:35;;;;;;;6.20;4.40;;;2.90;99.90;;;;;;5051646;28;20407;-79
2021/01/09 02:32:03;;;;;;;8.27;4.80;;;3.00;99.90;;;;;;5047075;28;20372;-80
2021/01/09 02:34:41;;;;;;;5.80;5.00;;;2.90;99.90;;;;;;5063881;28;20387;-79
2021/01/09 02:37:08;;;;;;;5.67;4.20;;;2.90;99.90;;;;;;5081417;28;20449;-80
2021/01/09 02:39:34;;;;;;;6.83;4.80;;;2.90;99.90;;;;;;5064351;28;20405;-79
2021/01/09 02:42:04;;;;;;;6.50;5.17;;;3.00;99.90;;;;;;5048711;28;20413;-80
2021/01/09 02:44:31;;;;;;;5.90;4.70;;;3.00;99.90;;;;;;5080456;28;20386;-80
2021/01/09 02:46:57;;;;;;;6.00;5.07;;;3.10;99.90;;;;;;5047455;28;20372;-80
2021/01/09 02:49:24;;;;;;;7.00;5.50;;;3.10;99.90;;;;;;5030868;28;20395;-79
2021/01/09 02:51:50;;;;;;;7.53;5.13;;;3.10;99.90;;;;;;5045759;28;20179;-80
2021/01/09 02:54:17;;;;;;;11.20;5.17;;;3.10;99.90;;;;;;5039185;28;20986;-80
2021/01/09 02:56:44;;;;;;;6.83;5.10;;;3.10;99.90;;;;;;5006193;28;20440;-78
2021/01/09 02:59:10;;;;;;;7.40;4.63;;;3.00;99.90;;;;;;4971385;28;20430;-79
2021/01/09 03:01:37;;;;;;;4.63;3.90;;;3.00;99.90;;;;;;4999640;28;20440;-79
2021/01/09 03:04:04;;;;;;;6.60;4.70;;;3.00;99.90;;;;;;4965378;28;20185;-79
2021/01/09 03:06:32;;;;;;;7.60;3.97;;;3.00;99.90;;;;;;4981208;28;20431;-78
2021/01/09 03:08:59;;;;;;;7.97;4.53;;;2.90;99.90;;;;;;4996749;28;20406;-79
2021/01/09 03:11:24;;;;;;;6.83;5.03;;;3.00;99.90;;;;;;4990304;28;20397;-76
2021/01/09 03:13:50;;;;;;;7.33;4.57;;;3.00;99.90;;;;;;4942604;29;20419;-78
2021/01/09 03:16:20;;;;;;;5.50;4.77;;;2.90;99.90;;;;;;4943312;29;20231;-77
2021/01/09 03:18:46;;;;;;;7.33;4.90;;;2.90;99.90;;;;;;4920917;29;20441;-79
2021/01/09 03:21:14;;;;;;;5.40;4.80;;;2.90;99.90;;;;;;4885688;29;20477;-78
2021/01/09 03:23:40;;;;;;;5.97;4.40;;;2.80;99.90;;;;;;4902359;29;20185;-78
2021/01/09 03:26:08;;;;;;;5.33;4.80;;;2.90;99.90;;;;;;4935658;29;20440;-78
2021/01/09 03:28:37;;;;;;;7.40;5.10;;;2.90;99.90;;;;;;4940797;29;20416;-78
2021/01/09 03:31:03;;;;;;;5.80;4.20;;;2.80;99.90;;;;;;4925571;29;20227;-79
2021/01/09 03:33:29;;;;;;;5.60;4.30;;;2.80;99.90;;;;;;4959714;28;20417;-78
2021/01/09 03:35:56;;;;;;;8.70;5.07;;;2.80;99.90;;;;;;4978095;28;20422;-79
2021/01/09 03:38:22;;;;;;;8.10;6.30;;;2.80;99.90;;;;;;4960765;28;20455;-79
2021/01/09 03:40:49;;;;;;;7.37;5.13;;;2.80;99.90;;;;;;4960691;28;20410;-79
2021/01/09 03:43:14;;;;;;;7.40;5.17;;;2.80;99.90;;;;;;4976373;28;20854;-79
2021/01/09 03:45:40;;;;;;;7.37;5.47;;;2.80;99.90;;;;;;4993799;28;20408;-79
2021/01/09 03:48:07;;;;;;;7.53;4.93;;;2.70;99.90;;;;;;4981198;28;20262;-79
2021/01/09 03:50:33;;;;;;;5.37;4.80;;;2.70;99.90;;;;;;4969197;29;20198;-78
2021/01/09 03:53:02;;;;;;;7.00;4.30;;;2.60;99.90;;;;;;4988489;28;20454;-79
2021/01/09 03:55:32;;;;;;;7.43;5.03;;;2.60;99.90;;;;;;4989746;28;20779;-78
2021/01/09 03:57:58;;;;;;;8.67;5.97;;;2.60;99.90;;;;;;5000685;28;20487;-79
2021/01/09 04:00:24;;;;;;;7.63;4.80;;;2.60;99.90;;;;;;4984116;28;20384;-78
2021/01/09 04:02:49;;;;;;;10.07;5.73;;;2.60;99.90;;;;;;4983655;28;20570;-79
2021/01/09 04:05:15;;;;;;;5.60;5.10;;;2.70;99.90;;;;;;4961344;28;20442;-79
2021/01/09 04:07:41;;;;;;;6.77;5.57;;;2.70;99.90;;;;;;4945611;29;20596;-79
2021/01/09 04:10:12;;;;;;;5.93;4.27;;;2.60;99.90;;;;;;4940142;28;20196;-79
2021/01/09 04:12:38;;;;;;;9.00;6.43;;;2.70;99.90;;;;;;4948739;28;20198;-78
2021/01/09 04:15:05;;;;;;;8.27;5.40;;;2.70;99.90;;;;;;4963231;28;20415;-78
2021/01/09 04:17:31;;;;;;;7.73;5.73;;;2.70;99.90;;;;;;4960080;29;20269;-79
2021/01/09 04:19:57;;;;;;;9.63;5.10;;;2.60;99.90;;;;;;4978279;28;20525;-79
2021/01/09 04:22:24;;;;;;;7.10;5.33;;;2.60;99.90;;;;;;4982210;28;20409;-78
2021/01/09 04:24:50;;;;;;;8.10;4.87;;;2.60;99.90;;;;;;4998601;28;20417;-79
2021/01/09 04:27:17;;;;;;;10.40;6.27;;;2.60;99.90;;;;;;4999119;28;20451;-78
2021/01/09 04:29:43;;;;;;;7.83;4.43;;;2.60;99.90;;;;;;4999221;28;20166;-79
2021/01/09 04:32:10;;;;;;;7.43;4.50;;;2.60;99.90;;;;;;5006238;28;20412;-78
2021/01/09 04:34:36;;;;;;;6.47;5.70;;;2.60;99.90;;;;;;4964161;28;20564;-79
2021/01/09 04:37:01;;;;;;;8.50;5.37;;;2.60;99.90;;;;;;5012677;28;20497;-79
2021/01/09 04:39:27;;;;;;;8.67;5.70;;;2.60;99.90;;;;;;5006731;28;20176;-79
2021/01/09 04:41:56;;;;;;;7.40;4.87;;;2.50;99.90;;;;;;5042820;28;20188;-78
2021/01/09 04:44:23;;;;;;;6.73;4.90;;;2.60;99.90;;;;;;5026140;28;20369;-79
2021/01/09 04:46:53;;;;;;;5.27;4.33;;;2.50;99.90;;;;;;4990356;28;20223;-79
2021/01/09 04:49:22;;;;;;;8.73;5.80;;;2.50;99.90;;;;;;4999404;28;20427;-79
2021/01/09 04:51:52;;;;;;;7.43;4.40;;;2.50;99.90;;;;;;5000398;28;20400;-79
2021/01/09 04:54:20;;;;;;;6.17;5.60;;;2.60;99.90;;;;;;4999579;28;20472;-79
2021/01/09 04:56:50;;;;;;;8.67;4.60;;;2.60;99.90;;;;;;4999346;28;20414;-78
2021/01/09 04:59:20;;;;;;;9.83;6.30;;;2.60;99.90;;;;;;4982398;28;20992;-79
2021/01/09 05:01:51;;;;;;;11.23;6.53;;;2.50;99.90;;;;;;4997412;28;20371;-79
2021/01/09 05:04:18;;;;;;;7.20;5.90;;;2.60;99.90;;;;;;5016363;28;20412;-79
2021/01/09 05:06:46;;;;;;;7.00;5.90;;;2.60;99.90;;;;;;5016249;28;20491;-78
2021/01/09 05:09:21;;;;;;;9.33;5.53;;;2.50;99.90;;;;;;5031885;28;20795;-79
2021/01/09 05:11:47;;;;;;;7.20;5.60;;;2.60;99.90;;;;;;5015979;28;20386;-78
2021/01/09 05:14:12;;;;;;;8.87;4.10;;;2.50;99.90;;;;;;5045528;28;20405;-78
2021/01/09 05:16:39;;;;;;;10.83;6.13;;;2.60;99.90;;;;;;5033322;28;20185;-78
2021/01/09 05:19:07;;;;;;;8.00;6.57;;;2.60;99.90;;;;;;5053596;28;20526;-78
2021/01/09 05:21:36;;;;;;;8.83;5.60;;;2.60;99.90;;;;;;5060039;28;20504;-78
2021/01/09 05:24:06;;;;;;;6.03;4.87;;;2.60;99.90;;;;;;5043590;28;20436;-79
2021/01/09 05:26:32;;;;;;;8.57;5.87;;;2.60;99.90;;;;;;5044265;28;20465;-79
2021/01/09 05:29:00;;;;;;;7.90;5.27;;;2.50;99.90;;;;;;5026820;28;20465;-78
2021/01/09 05:31:31;;;;;;;8.93;6.43;;;2.60;99.90;;;;;;5063098;28;20391;-80
2021/01/09 05:33:57;;;;;;;11.87;6.17;;;2.30;99.90;;;;;;5087211;28;20408;-79
2021/01/09 05:36:24;;;;;;;10.10;8.00;;;2.40;99.90;;;;;;5086300;28;20804;-79
2021/01/09 05:38:51;;;;;;;12.80;6.67;;;2.40;99.90;;;;;;5090723;28;20443;-79
2021/01/09 05:41:19;;;;;;;7.03;4.97;;;2.50;99.90;;;;;;5112636;28;20396;-80
2021/01/09 05:43:57;;;;;;;6.53;5.50;;;2.60;99.90;;;;;;5079195;28;20542;-80
2021/01/09 05:46:24;;;;;;;7.10;3.80;;;2.70;99.90;;;;;;5110485;28;20396;-78
2021/01/09 05:48:51;;;;;;;7.50;5.43;;;2.70;99.90;;;;;;5087750;28;20393;-79
2021/01/09 05:51:18;;;;;;;7.77;6.47;;;2.60;99.90;;;;;;5088049;28;20393;-79
2021/01/09 05:53:46;;;;;;;8.47;5.87;;;2.60;99.90;;;;;;5087132;28;20464;-79
2021/01/09 05:56:17;;;;;;;7.40;4.50;;;2.60;99.90;;;;;;5105764;28;20377;-80
2021/01/09 05:58:46;;;;;;;5.73;4.27;;;2.40;99.90;;;;;;5104535;28;20931;-79
2021/01/09 06:01:19;;;;;;;7.37;4.40;;;2.40;99.90;;;;;;5026452;28;20430;-80
2021/01/09 06:03:52;;;;;;;8.80;4.53;;;2.40;99.90;;;;;;4989656;28;20794;-79
2021/01/09 06:06:50;;;;;;;5.17;4.33;;;2.40;99.90;;;;;;4989425;28;20408;-78
2021/01/09 06:09:22;;;;;;;5.63;4.90;;;2.30;99.90;;;;;;5005436;28;20416;-79
2021/01/09 06:11:53;;;;;;;5.40;4.33;;;2.30;99.90;;;;;;4989653;28;20436;-79
2021/01/09 06:14:26;;;;;;;8.70;5.80;;;2.40;99.90;;;;;;5008641;28;20404;-79
2021/01/09 06:16:56;;;;;;;15.00;7.83;;;2.40;99.90;;;;;;4989434;28;20459;-80
2021/01/09 06:19:24;;;;;;;11.20;5.00;;;2.40;99.90;;;;;;4991134;28;20472;-80
2021/01/09 06:21:55;;;;;;;8.17;6.10;;;2.30;99.90;;;;;;4970576;28;20461;-80
2021/01/09 06:24:21;;;;;;;8.87;5.73;;;2.30;99.90;;;;;;4929076;29;20400;-80
2021/01/09 06:26:49;;;;;;;5.23;4.73;;;2.30;99.90;;;;;;4943446;29;20416;-80
2021/01/09 06:29:25;;;;;;;7.47;6.20;;;2.20;99.90;;;;;;4944062;29;20399;-79
2021/01/09 06:31:57;;;;;;;7.00;4.97;;;2.20;99.90;;;;;;4936205;29;21015;-79
2021/01/09 06:34:26;;;;;;;4.83;4.33;;;2.20;99.90;;;;;;4977013;28;20765;-79
2021/01/09 06:37:20;;;;;;;9.67;6.23;;;2.20;99.90;;;;;;4982502;28;20517;-79
2021/01/09 06:39:46;;;;;;;8.43;6.23;;;2.20;99.90;;;;;;4962617;28;20555;-79
2021/01/09 06:42:35;;;;;;;8.33;5.90;;;2.20;99.90;;;;;;4924844;29;20497;-80
2021/01/09 06:45:06;;;;;;;8.07;5.87;;;2.20;99.90;;;;;;4909491;29;20394;-79
2021/01/09 06:47:35;;;;;;;10.20;7.10;;;2.20;99.90;;;;;;4895605;29;20408;-79
2021/01/09 06:50:32;;;;;;;7.70;5.67;;;2.10;99.90;;;;;;4865173;29;20417;-79
2021/01/09 06:53:41;;;;;;;5.80;5.30;;;2.10;99.90;;;;;;4918579;29;20249;-79
2021/01/09 06:56:07;;;;;;;11.77;6.13;;;2.10;99.90;;;;;;4858797;29;20405;-79
2021/01/09 06:58:54;;;;;;;12.07;5.83;;;2.10;99.90;;;;;;4864587;29;20461;-79
2021/01/09 07:01:22;;;;;;;12.90;7.10;;;2.10;99.90;;;;;;4866184;29;20443;-77
2021/01/09 07:03:48;;;;;;;7.97;5.40;;;2.00;99.90;;;;;;4848073;29;20532;-77
2021/01/09 07:08:46;;;;;;;9.77;6.80;;;2.10;99.90;;;;;;5088185;28;20464;-80
2021/01/09 07:11:18;;;;;;;9.00;6.57;;;2.00;99.90;;;;;;5041131;28;20411;-79
2021/01/09 07:13:45;;;;;;;10.47;5.70;;;2.00;99.90;;;;;;5041993;28;20408;-78
2021/01/09 07:16:13;;;;;;;11.67;7.07;;;2.10;99.90;;;;;;5041307;28;20432;-77
2021/01/09 07:18:46;;;;;;;6.90;5.33;;;2.10;99.90;;;;;;5040381;28;20470;-79
2021/01/09 07:21:18;;;;;;;10.03;6.73;;;2.10;99.90;;;;;;5025062;28;20451;-79
2021/01/09 07:23:56;;;;;;;7.83;5.90;;;2.00;99.90;;;;;;5031665;28;20416;-80
2021/01/09 07:26:25;;;;;;;8.40;5.40;;;2.00;99.90;;;;;;5046197;28;20397;-80
2021/01/09 07:28:52;;;;;;;11.77;5.47;;;2.00;99.90;;;;;;5045028;28;20474;-80
2021/01/09 07:31:24;;;;;;;6.63;5.63;;;1.90;99.90;;;;;;5046340;28;20442;-80
2021/01/09 07:33:57;;;;;;;11.20;6.83;;;1.90;99.90;;;;;;5046252;28;20395;-80
2021/01/09 07:36:28;;;;;;;6.70;5.93;;;1.90;99.90;;;;;;5044923;28;20485;-80
2021/01/09 07:39:03;;;;;;;13.87;7.63;;;1.90;99.90;;;;;;5040714;28;20446;-79
2021/01/09 07:41:34;;;;;;;11.03;7.30;;;1.90;99.90;;;;;;5051853;28;20436;-78
2021/01/09 07:44:18;;;;;;;13.33;8.67;;;1.90;99.90;;;;;;5069943;28;20436;-79
2021/01/09 07:46:55;;;;;;;17.00;10.30;;;1.90;99.90;;;;;;5077566;28;20407;-79
2021/01/09 07:49:30;;;;;;;10.20;7.47;;;1.90;99.90;;;;;;5003668;28;20185;-79
2021/01/09 07:52:02;;;;;;;9.60;7.60;;;1.90;99.90;;;;;;5013279;28;20437;-79
2021/01/09 07:54:44;;;;;;;12.47;8.07;;;1.80;99.90;;;;;;5025506;28;20419;-79
2021/01/09 07:57:25;;;;;;;9.20;6.90;;;1.90;99.90;;;;;;5001369;28;20457;-79
2021/01/09 08:00:04;;;;;;;8.17;7.07;;;1.90;99.90;;;;;;4968778;28;20414;-79
2021/01/09 08:02:34;;;;;;;6.60;5.50;;;1.90;99.90;;;;;;5001520;28;20412;-79
2021/01/09 08:05:24;;;;;;;9.77;5.60;;;1.90;99.90;;;;;;4986065;28;20421;-79
2021/01/09 08:07:55;;;;;;;10.97;7.00;;;1.90;99.90;;;;;;4976451;28;20490;-79
2021/01/09 08:10:31;;;;;;;10.87;6.87;;;1.90;99.90;;;;;;4947175;29;20795;-79
2021/01/09 08:13:01;;;;;;;14.67;8.50;;;2.50;99.90;;;;;;4963627;28;20419;-79
2021/01/09 08:15:35;;;;;;;8.77;6.43;;;3.10;99.90;;;;;;4948689;29;20411;-79
2021/01/09 08:18:04;;;;;;;10.10;7.07;;;3.30;99.90;;;;;;4949328;29;20617;-80
2021/01/09 08:20:30;;;;;;;9.70;7.53;;;3.70;99.90;;;;;;4964947;28;20443;-79
2021/01/09 08:23:06;;;;;;;13.63;7.20;;;4.00;99.90;;;;;;4965862;29;20415;-80
2021/01/09 08:25:35;;;;;;;33.13;7.07;;;4.10;99.90;;;;;;4966660;29;20473;-79
2021/01/09 08:28:02;;;;;;;8.50;6.10;;;4.40;99.90;;;;;;4983067;28;20413;-79
2021/01/09 08:30:33;;;;;;;17.43;6.83;;;4.70;99.90;;;;;;5005759;28;20372;-79
2021/01/09 08:33:18;;;;;;;9.73;7.40;;;5.00;99.90;;;;;;5030268;28;20913;-79
2021/01/09 08:35:47;;;;;;;12.10;7.50;;;5.30;99.90;;;;;;5064927;28;20394;-80
2021/01/09 08:38:13;;;;;;;14.73;7.50;;;5.50;99.90;;;;;;5048741;28;20465;-80
2021/01/09 08:40:43;;;;;;;9.17;7.63;;;5.80;99.90;;;;;;5005535;28;20461;-80
2021/01/09 08:43:10;;;;;;;11.77;6.57;;;5.70;99.90;;;;;;5004519;28;20441;-80
2021/01/09 08:45:46;;;;;;;16.27;8.10;;;5.80;99.90;;;;;;5005948;28;20368;-80
2021/01/09 08:48:29;;;;;;;8.77;6.50;;;6.00;99.90;;;;;;5072659;28;20429;-80
2021/01/09 08:51:03;;;;;;;13.00;6.60;;;6.20;99.90;;;;;;5008724;28;20415;-79
2021/01/09 08:53:41;;;;;;;15.97;10.27;;;6.50;99.90;;;;;;5009545;28;20440;-80
2021/01/09 08:56:08;;;;;;;13.73;7.03;;;6.40;99.90;;;;;;5009755;28;20738;-80
2021/01/09 08:58:37;;;;;;;13.10;7.33;;;6.70;99.90;;;;;;5077535;28;20452;-80
2021/01/09 09:01:07;;;;;;;13.80;8.20;;;6.40;99.90;;;;;;5009869;28;20372;-80
2021/01/09 09:03:35;;;;;;;13.27;7.07;;;5.80;99.90;;;;;;5079804;28;20443;-79
2021/01/09 09:06:13;;;;;;;8.23;6.93;;;5.50;99.90;;;;;;5018424;28;20409;-79
2021/01/09 09:08:41;;;;;;;8.57;6.50;;;5.10;99.90;;;;;;5089229;28;20544;-80
2021/01/09 09:11:07;;;;;;;5.20;4.70;;;5.10;99.90;;;;;;5100813;28;20416;-80
2021/01/09 09:13:33;;;;;;;9.13;7.33;;;5.20;99.90;;;;;;5092629;28;20441;-80
2021/01/09 09:16:16;;;;;;;8.70;5.77;;;5.90;99.90;;;;;;5089492;28;20457;-79
2021/01/09 09:18:42;;;;;;;8.10;5.33;;;6.90;99.90;;;;;;5088333;28;20424;-80
2021/01/09 09:21:09;;;;;;;12.20;7.50;;;7.50;99.90;;;;;;5090438;28;20415;-79
2021/01/09 09:23:36;;;;;;;8.50;6.53;;;8.30;99.90;;;;;;5090382;28;20843;-80
2021/01/09 09:26:11;;;;;;;10.77;6.97;;;8.70;99.90;;;;;;5089418;28;20380;-80
2021/01/09 09:28:53;;;;;;;10.30;7.60;;;7.40;99.90;;;;;;5091445;28;20455;-79
2021/01/09 09:31:24;;;;;;;7.60;6.30;;;6.60;99.90;;;;;;5093189;28;20405;-80
2021/01/09 09:33:58;;;;;;;10.77;6.30;;;6.80;99.90;;;;;;5093447;28;20394;-80
2021/01/09 09:36:25;;;;;;;7.60;6.20;;;6.50;99.90;;;;;;5073643;28;20401;-80
2021/01/09 09:38:51;;;;;;;9.43;6.50;;;6.10;99.90;;;;;;5090762;28;20452;-80
2021/01/09 09:41:16;;;;;;;7.70;5.73;;;5.60;99.90;;;;;;5071853;28;20726;-80
2021/01/09 09:43:54;;;;;;;7.47;6.43;;;5.20;99.90;;;;;;5090198;28;20372;-80
2021/01/09 09:46:20;;;;;;;9.70;7.93;;;5.10;99.90;;;;;;5072008;28;20608;-80
2021/01/09 09:48:47;;;;;;;6.57;5.27;;;5.00;99.90;;;;;;5090889;28;20406;-80
2021/01/09 09:51:14;;;;;;;5.40;4.90;;;4.90;99.90;;;;;;5091200;28;20170;-80
2021/01/09 09:53:41;;;;;;;8.23;5.10;;;4.70;99.90;;;;;;5073259;28;20405;-80
2021/01/09 09:56:16;;;;;;;7.80;5.60;;;4.60;99.90;;;;;;5097595;28;20917;-79
2021/01/09 09:58:42;;;;;;;8.30;5.60;;;4.40;99.90;;;;;;5098590;28;20476;-80
2021/01/09 10:01:20;;;;;;;9.70;7.20;;;4.40;99.90;;;;;;5094746;28;20517;-80
2021/01/09 10:03:47;;;;;;;6.00;5.40;;;4.30;99.90;;;;;;5089817;28;20402;-79
2021/01/09 10:06:13;;;;;;;6.63;5.03;;;4.30;99.90;;;;;;5088791;28;20409;-80
2021/01/09 10:08:39;;;;;;;9.57;5.70;;;4.10;99.90;;;;;;5070968;28;20432;-79
2021/01/09 10:11:05;;;;;;;11.27;5.43;;;4.00;99.90;;;;;;5089318;28;20160;-81
2021/01/09 10:13:31;;;;;;;11.13;5.87;;;4.00;99.90;;;;;;5089356;28;20185;-80
2021/01/09 10:15:58;;;;;;;7.03;6.33;;;4.00;99.90;;;;;;5088862;28;20511;-80
2021/01/09 10:18:26;;;;;;;14.90;8.60;;;3.90;99.90;;;;;;5071018;28;20465;-79
2021/01/09 10:20:52;;;;;;;14.67;8.37;;;3.90;99.90;;;;;;5036962;28;20601;-80
2021/01/09 10:23:18;;;;;;;10.00;6.60;;;3.90;99.90;;;;;;5089085;28;20390;-80
2021/01/09 10:25:44;;;;;;;11.07;7.67;;;3.90;99.90;;;;;;5088811;28;20429;-80
2021/01/09 10:28:10;;;;;;;7.50;4.80;;;4.00;99.90;;;;;;5087977;28;20175;-80
2021/01/09 10:30:36;;;;;;;7.43;5.53;;;4.00;99.90;;;;;;5087722;28;20239;-80
2021/01/09 10:33:02;;;;;;;8.53;5.60;;;3.90;99.90;;;;;;5089306;28;20203;-80
2021/01/09 10:35:28;;;;;;;7.67;5.67;;;3.90;99.90;;;;;;5086430;28;20406;-80
2021/01/09 10:37:54;;;;;;;9.30;5.60;;;3.90;99.90;;;;;;5087120;28;20422;-79
2021/01/09 10:40:23;;;;;;;8.03;6.43;;;3.90;99.90;;;;;;5087442;28;20389;-79
2021/01/09 10:42:49;;;;;;;10.30;5.53;;;3.90;99.90;;;;;;5087152;28;20160;-80
2021/01/09 10:45:16;;;;;;;8.33;4.23;;;3.80;99.90;;;;;;5086811;28;20409;-80
2021/01/09 10:47:42;;;;;;;8.63;5.80;;;3.90;99.90;;;;;;5087569;28;20164;-79
2021/01/09 10:50:09;;;;;;;11.67;5.87;;;3.90;99.90;;;;;;5087795;28;20394;-81
2021/01/09 10:52:35;;;;;;;9.03;5.87;;;3.80;99.90;;;;;;5068069;28;20940;-81
2021/01/09 10:55:02;;;;;;;12.47;6.47;;;3.70;99.90;;;;;;5068981;28;20410;-80
2021/01/09 10:57:28;;;;;;;8.37;5.80;;;3.70;99.90;;;;;;5087271;28;20445;-79
2021/01/09 10:59:54;;;;;;;6.50;5.10;;;3.70;99.90;;;;;;5087868;28;20398;-79
2021/01/09 11:02:20;;;;;;;9.37;6.37;;;3.70;99.90;;;;;;5088134;28;20412;-79
2021/01/09 11:04:46;;;;;;;8.10;5.50;;;3.70;99.90;;;;;;5088254;28;20155;-80
2021/01/09 11:07:11;;;;;;;9.63;5.80;;;3.70;99.90;;;;;;5087461;28;20454;-79
2021/01/09 11:09:37;;;;;;;12.37;6.53;;;3.60;99.90;;;;;;5086373;28;20171;-78
2021/01/09 11:12:04;;;;;;;7.27;4.97;;;3.70;99.90;;;;;;5085269;28;20218;-80
2021/01/09 11:14:30;;;;;;;8.33;5.67;;;3.70;99.90;;;;;;5089508;28;20626;-80
2021/01/09 11:16:57;;;;;;;6.07;5.47;;;3.80;99.90;;;;;;5089229;28;20885;-80
2021/01/09 11:19:22;;;;;;;11.50;5.70;;;3.70;99.90;;;;;;5089230;28;20394;-78
2021/01/09 11:21:48;;;;;;;8.73;5.33;;;3.80;99.90;;;;;;5089316;28;20394;-80
2021/01/09 11:24:14;;;;;;;10.10;6.23;;;3.80;99.90;;;;;;5088924;28;20170;-80
2021/01/09 11:26:40;;;;;;;7.40;5.60;;;3.90;99.90;;;;;;5090136;28;20159;-80
2021/01/09 11:29:05;;;;;;;7.90;5.47;;;4.00;99.90;;;;;;5090323;28;20227;-79
2021/01/09 11:31:31;;;;;;;5.23;4.73;;;4.10;99.90;;;;;;5088012;28;20163;-80
2021/01/09 11:33:57;;;;;;;13.90;6.77;;;4.30;99.90;;;;;;5088827;28;20168;-80
2021/01/09 11:36:23;;;;;;;11.00;6.17;;;4.40;99.90;;;;;;5088228;28;20186;-80
2021/01/09 11:38:48;;;;;;;11.50;6.30;;;4.70;99.90;;;;;;5088958;28;20195;-79
2021/01/09 11:41:15;;;;;;;12.03;6.97;;;5.20;99.90;;;;;;5089724;28;20156;-80
2021/01/09 11:43:42;;;;;;;8.90;6.23;;;7.20;99.90;;;;;;5091760;28;20219;-80
2021/01/09 11:46:09;;;;;;;8.10;5.13;;;7.30;99.90;;;;;;5073739;28;20414;-80
2021/01/09 11:48:35;;;;;;;8.00;5.47;;;6.80;99.90;;;;;;5089168;28;20377;-80
2021/01/09 11:51:01;;;;;;;8.60;5.73;;;6.60;99.90;;;;;;5087815;28;20376;-80
2021/01/09 11:53:27;;;;;;;8.90;5.90;;;6.50;99.90;;;;;;5087664;28;20416;-80
2021/01/09 11:55:53;;;;;;;8.97;5.90;;;6.10;99.90;;;;;;5085974;28;20821;-80
2021/01/09 11:58:19;;;;;;;13.90;7.93;;;5.70;99.90;;;;;;5087506;28;20449;-80
2021/01/09 12:00:46;;;;;;;8.93;5.07;;;5.50;99.90;;;;;;5069270;28;20404;-80
2021/01/09 12:03:17;;;;;;;6.50;5.27;;;5.30;99.90;;;;;;5087225;28;20365;-80
2021/01/09 12:05:43;;;;;;;7.23;6.20;;;4.80;99.90;;;;;;5068393;28;20394;-80
2021/01/09 12:08:09;;;;;;;9.53;6.17;;;4.60;99.90;;;;;;5087078;28;20503;-80
2021/01/09 12:10:35;;;;;;;7.70;6.37;;;4.70;99.90;;;;;;5087264;28;20459;-78
2021/01/09 12:13:03;;;;;;;9.30;5.43;;;4.70;99.90;;;;;;5070929;28;20174;-79
2021/01/09 12:15:29;;;;;;;7.77;6.60;;;4.60;99.90;;;;;;5086647;28;20419;-79
2021/01/09 12:17:56;;;;;;;8.10;6.10;;;4.90;99.90;;;;;;5086817;28;20756;-79
2021/01/09 12:20:22;;;;;;;6.90;5.10;;;4.90;99.90;;;;;;5087135;28;20240;-79
2021/01/09 12:22:48;;;;;;;6.57;5.80;;;4.90;99.90;;;;;;5087082;28;20439;-79
2021/01/09 12:25:14;;;;;;;8.37;5.83;;;5.20;99.90;;;;;;5058742;28;20222;-80
2021/01/09 12:27:39;;;;;;;6.97;6.13;;;4.80;99.90;;;;;;5093436;28;20429;-78
2021/01/09 12:30:06;;;;;;;7.80;5.20;;;5.40;99.90;;;;;;5095023;28;20159;-80
2021/01/09 12:32:31;;;;;;;7.63;5.23;;;5.60;99.90;;;;;;5094685;28;20208;-79
2021/01/09 12:35:03;;;;;;;11.87;7.07;;;5.90;99.90;;;;;;5094261;28;20378;-80
2021/01/09 12:37:29;;;;;;;9.03;5.60;;;6.00;99.90;;;;;;5097930;28;20466;-80
2021/01/09 12:39:55;;;;;;;8.40;5.40;;;5.90;99.90;;;;;;5097212;28;20399;-80
2021/01/09 12:42:24;;;;;;;4.67;4.13;;;5.70;99.90;;;;;;5095131;28;20393;-78
2021/01/09 12:44:50;;;;;;;5.03;4.60;;;5.50;99.90;;;;;;5093640;28;20155;-79
2021/01/09 12:47:16;;;;;;;9.90;5.27;;;5.30;99.90;;;;;;5095095;28;20412;-80
2021/01/09 12:49:42;;;;;;;6.97;5.83;;;5.10;99.90;;;;;;5095670;28;20401;-80
2021/01/09 12:52:08;;;;;;;8.20;5.13;;;4.80;99.90;;;;;;5094932;28;20166;-80
2021/01/09 12:54:35;;;;;;;5.17;4.30;;;4.60;99.90;;;;;;5053700;28;20457;-79
2021/01/09 12:57:01;;;;;;;6.57;5.00;;;4.50;99.90;;;;;;5091314;28;20199;-79
2021/01/09 12:59:27;;;;;;;7.80;5.97;;;4.20;99.90;;;;;;5075465;28;20405;-79
2021/01/09 13:01:54;;;;;;;6.47;4.33;;;4.40;99.90;;;;;;5093404;28;20163;-79
2021/01/09 13:04:21;;;;;;;10.67;6.57;;;4.40;99.90;;;;;;5093646;28;20168;-79
2021/01/09 13:06:49;;;;;;;9.27;5.10;;;4.40;99.90;;;;;;5092392;28;20816;-79